Time,TemperatureF,DewpointF,PressureIn,WindDirection,WindDirectionDegrees,WindSpeedMPH,WindSpeedGustMPH,Humidity,HourlyPrecipIn,Conditions,Clouds,dailyrainin,SolarRadiationWatts/m^2,SoftwareType,DateUTC
2013-02-07 00:01:00,31.0,30.0,-100.00,South,171,4.0,8.0,97,0.00,,,0.00,0.000000,,2013-02-07 07:01:00,
2013-02-07 00:32:00,31.0,30.0,-100.00,SSW,203,0.0,6.0,97,0.00,,,0.00,0.000000,,2013-02-07 07:32:00,
2013-02-07 00:42:00,31.0,30.0,-100.00,SSW,203,0.0,6.0,97,0.00,,,0.00,0.000000,,2013-02-07 07:42:00,
2013-02-07 00:52:00,31.0,30.0,-100.00,SSW,203,0.0,6.0,97,0.00,,,0.00,0.000000,,2013-02-07 07:52:00,
2013-02-07 01:01:00,31.0,30.0,-100.00,SSW,203,0.0,6.0,97,0.00,,,0.00,0.000000,,2013-02-07 08:01:00,
2013-02-07 01:32:00,28.0,28.0,-100.00,South,175,1.0,5.0,98,0.00,,,0.00,0.000000,,2013-02-07 08:32:00,
2013-02-07 01:42:00,28.0,28.0,-100.00,South,175,1.0,5.0,98,0.00,,,0.00,0.000000,,2013-02-07 08:42:00,
2013-02-07 01:52:00,28.0,28.0,-100.00,South,175,1.0,5.0,98,0.00,,,0.00,0.000000,,2013-02-07 08:52:00,
2013-02-07 02:01:00,28.0,28.0,-100.00,South,175,1.0,5.0,98,0.00,,,0.00,0.000000,,2013-02-07 09:01:00,
2013-02-07 02:32:00,25.0,24.0,-100.00,SSW,194,0.0,4.0,97,0.00,,,0.00,0.000000,,2013-02-07 09:32:00,
2013-02-07 02:42:00,25.0,24.0,-100.00,SSW,194,0.0,4.0,97,0.00,,,0.00,0.000000,,2013-02-07 09:42:00,
2013-02-07 02:52:00,25.0,24.0,-100.00,SSW,194,0.0,4.0,97,0.00,,,0.00,0.000000,,2013-02-07 09:52:00,
2013-02-07 03:01:00,25.0,24.0,-100.00,SSW,194,0.0,4.0,97,0.00,,,0.00,0.000000,,2013-02-07 10:01:00,
2013-02-07 03:22:00,25.0,24.0,-100.00,SSW,212,0.0,0.0,97,0.00,,,0.00,0.000000,,2013-02-07 10:22:00,
2013-02-07 03:32:00,25.0,24.0,-100.00,SSW,212,0.0,0.0,97,0.00,,,0.00,0.000000,,2013-02-07 10:32:00,
2013-02-07 03:42:00,25.0,24.0,-100.00,SSW,212,0.0,0.0,97,0.00,,,0.00,0.000000,,2013-02-07 10:42:00,
2013-02-07 03:52:00,25.0,24.0,-100.00,SSW,212,0.0,0.0,97,0.00,,,0.00,0.000000,,2013-02-07 10:52:00,
2013-02-07 04:01:00,25.0,24.0,-100.00,SSW,212,0.0,0.0,97,0.00,,,0.00,0.000000,,2013-02-07 11:01:00,
2013-02-07 04:23:00,23.0,22.0,-100.00,South,191,0.0,0.0,96,0.00,,,0.00,0.000000,,2013-02-07 11:23:00,
2013-02-07 04:32:00,23.0,22.0,-100.00,South,191,0.0,0.0,96,0.00,,,0.00,0.000000,,2013-02-07 11:32:00,
2013-02-07 04:44:00,23.0,22.0,-100.00,South,191,0.0,0.0,96,0.00,,,0.00,0.000000,,2013-02-07 11:44:00,
2013-02-07 04:52:00,23.0,22.0,-100.00,South,191,0.0,0.0,96,0.00,,,0.00,0.000000,,2013-02-07 11:52:00,
2013-02-07 05:01:00,23.0,22.0,-100.00,South,191,0.0,0.0,96,0.00,,,0.00,0.000000,,2013-02-07 12:01:00,
2013-02-07 05:33:00,20.0,19.0,-100.00,SSW,203,0.0,0.0,95,0.00,,,0.00,0.000000,,2013-02-07 12:33:00,
2013-02-07 05:42:00,20.0,19.0,-100.00,SSW,203,0.0,0.0,95,0.00,,,0.00,0.000000,,2013-02-07 12:42:00,
2013-02-07 05:53:00,20.0,19.0,-100.00,SSW,203,0.0,0.0,95,0.00,,,0.00,0.000000,,2013-02-07 12:53:00,
2013-02-07 06:02:00,20.0,19.0,-100.00,SSW,203,0.0,0.0,95,0.00,,,0.00,0.000000,,2013-02-07 13:02:00,
2013-02-07 06:22:00,20.0,19.0,-100.00,SSW,203,0.0,0.0,94,-99.99,,,0.00,0.000000,,2013-02-07 13:22:00,
2013-02-07 06:32:00,20.0,19.0,-100.00,SSW,203,0.0,0.0,94,-99.99,,,0.00,0.000000,,2013-02-07 13:32:00,
2013-02-07 06:42:00,20.0,19.0,-100.00,SSW,203,0.0,0.0,94,-99.99,,,0.00,0.000000,,2013-02-07 13:42:00,
2013-02-07 06:52:00,20.0,19.0,-100.00,SSW,203,0.0,0.0,94,-99.99,,,0.00,0.000000,,2013-02-07 13:52:00,
2013-02-07 07:01:00,20.0,19.0,-100.00,SSW,203,0.0,0.0,94,-99.99,,,0.00,0.000000,,2013-02-07 14:01:00,
2013-02-07 07:32:00,20.0,19.0,-100.00,SSW,200,0.0,2.0,94,0.00,,,0.00,0.000000,,2013-02-07 14:32:00,
2013-02-07 07:42:00,20.0,19.0,-100.00,SSW,200,0.0,2.0,94,0.00,,,0.00,0.000000,,2013-02-07 14:42:00,
2013-02-07 07:52:00,20.0,19.0,-100.00,SSW,200,0.0,2.0,94,0.00,,,0.00,0.000000,,2013-02-07 14:52:00,
2013-02-07 08:01:00,20.0,19.0,-100.00,SSW,200,0.0,2.0,94,0.00,,,0.00,0.000000,,2013-02-07 15:01:00,
2013-02-07 08:22:00,22.0,21.0,-100.00,SSW,198,0.0,0.0,94,0.00,,,0.00,24.000000,,2013-02-07 15:22:00,
2013-02-07 08:32:00,22.0,21.0,-100.00,SSW,198,0.0,0.0,94,0.00,,,0.00,24.000000,,2013-02-07 15:32:00,
2013-02-07 08:42:00,22.0,21.0,-100.00,SSW,198,0.0,0.0,94,0.00,,,0.00,24.000000,,2013-02-07 15:42:00,
2013-02-07 08:52:00,22.0,21.0,-100.00,SSW,198,0.0,0.0,94,0.00,,,0.00,24.000000,,2013-02-07 15:52:00,
2013-02-07 09:01:00,22.0,21.0,-100.00,SSW,198,0.0,0.0,94,0.00,,,0.00,24.000000,,2013-02-07 16:01:00,
2013-02-07 09:32:00,32.0,28.0,-100.00,SSE,149,0.0,0.0,86,0.00,,,0.00,242.000000,,2013-02-07 16:32:00,
2013-02-07 09:42:00,32.0,28.0,-100.00,SSE,149,0.0,0.0,86,0.00,,,0.00,242.000000,,2013-02-07 16:42:00,
2013-02-07 09:52:00,32.0,28.0,-100.00,SSE,149,0.0,0.0,86,0.00,,,0.00,242.000000,,2013-02-07 16:52:00,
2013-02-07 10:01:00,32.0,28.0,-100.00,SSE,149,0.0,0.0,86,0.00,,,0.00,242.000000,,2013-02-07 17:01:00,
2013-02-07 10:32:00,43.0,31.0,-100.00,NNE,18,0.0,3.0,63,0.00,,,0.00,423.000000,,2013-02-07 17:32:00,
2013-02-07 10:43:00,43.0,31.0,-100.00,NNE,18,0.0,3.0,63,0.00,,,0.00,423.000000,,2013-02-07 17:43:00,
2013-02-07 10:52:00,43.0,31.0,-100.00,NNE,18,0.0,3.0,63,0.00,,,0.00,423.000000,,2013-02-07 17:52:00,
2013-02-07 11:01:00,43.0,31.0,-100.00,NNE,18,0.0,3.0,63,0.00,,,0.00,423.000000,,2013-02-07 18:01:00,
2013-02-07 11:23:00,35.0,29.0,-100.00,North,358,0.0,4.0,80,0.00,,,0.00,392.000000,,2013-02-07 18:23:00,
2013-02-07 11:32:00,35.0,29.0,-100.00,North,358,0.0,4.0,80,0.00,,,0.00,392.000000,,2013-02-07 18:32:00,
2013-02-07 11:42:00,35.0,29.0,-100.00,North,358,0.0,4.0,80,0.00,,,0.00,392.000000,,2013-02-07 18:42:00,
2013-02-07 11:52:00,35.0,29.0,-100.00,North,358,0.0,4.0,80,0.00,,,0.00,392.000000,,2013-02-07 18:52:00,
2013-02-07 12:01:00,35.0,29.0,-100.00,North,358,0.0,4.0,80,0.00,,,0.00,392.000000,,2013-02-07 19:01:00,
2013-02-07 12:32:00,47.0,30.0,-100.00,NNE,19,4.0,5.0,51,-99.99,,,0.00,621.000000,,2013-02-07 19:32:00,
2013-02-07 12:42:00,47.0,30.0,-100.00,NNE,19,4.0,5.0,51,-99.99,,,0.00,621.000000,,2013-02-07 19:42:00,
2013-02-07 12:52:00,47.0,30.0,-100.00,NNE,19,4.0,5.0,51,-99.99,,,0.00,621.000000,,2013-02-07 19:52:00,
2013-02-07 13:01:00,47.0,30.0,-100.00,NNE,19,4.0,5.0,51,-99.99,,,0.00,621.000000,,2013-02-07 20:01:00,
2013-02-07 13:22:00,46.0,24.0,-100.00,NNE,14,6.0,7.0,41,0.00,,,0.00,753.000000,,2013-02-07 20:22:00,
2013-02-07 13:32:00,46.0,24.0,-100.00,NNE,14,6.0,7.0,41,0.00,,,0.00,753.000000,,2013-02-07 20:32:00,
2013-02-07 13:42:00,46.0,24.0,-100.00,NNE,14,6.0,7.0,41,0.00,,,0.00,753.000000,,2013-02-07 20:42:00,
2013-02-07 13:52:00,46.0,24.0,-100.00,NNE,14,6.0,7.0,41,0.00,,,0.00,753.000000,,2013-02-07 20:52:00,
2013-02-07 14:01:00,46.0,24.0,-100.00,NNE,14,6.0,7.0,41,0.00,,,0.00,753.000000,,2013-02-07 21:01:00,
2013-02-07 14:32:00,49.0,26.0,-100.00,North,11,4.0,9.0,40,0.00,,,0.00,613.000000,,2013-02-07 21:32:00,
2013-02-07 14:42:00,49.0,26.0,-100.00,North,11,4.0,9.0,40,0.00,,,0.00,613.000000,,2013-02-07 21:42:00,
2013-02-07 14:52:00,49.0,26.0,-100.00,North,11,4.0,9.0,40,0.00,,,0.00,613.000000,,2013-02-07 21:52:00,
2013-02-07 15:01:00,49.0,26.0,-100.00,North,11,4.0,9.0,40,0.00,,,0.00,613.000000,,2013-02-07 22:01:00,
2013-02-07 15:32:00,54.0,26.0,-100.00,SSW,201,2.0,9.0,33,0.01,,,0.01,638.000000,,2013-02-07 22:32:00,
2013-02-07 15:42:00,54.0,26.0,-100.00,SSW,201,2.0,9.0,33,0.01,,,0.01,638.000000,,2013-02-07 22:42:00,
2013-02-07 15:52:00,54.0,26.0,-100.00,SSW,201,2.0,9.0,33,0.01,,,0.01,638.000000,,2013-02-07 22:52:00,
2013-02-07 16:01:00,54.0,26.0,-100.00,SSW,201,2.0,9.0,33,0.01,,,0.01,638.000000,,2013-02-07 23:01:00,
2013-02-07 16:32:00,50.0,23.0,-100.00,SSW,195,4.0,12.0,34,-99.99,,,0.01,510.000000,,2013-02-07 23:32:00,
2013-02-07 16:42:00,50.0,23.0,-100.00,SSW,195,4.0,12.0,34,-99.99,,,0.01,510.000000,,2013-02-07 23:42:00,
2013-02-07 16:52:00,50.0,23.0,-100.00,SSW,195,4.0,12.0,34,-99.99,,,0.01,510.000000,,2013-02-07 23:52:00,
2013-02-07 17:01:00,50.0,23.0,-100.00,SSW,195,4.0,12.0,34,-99.99,,,0.01,510.000000,,2013-02-08 00:01:00,
2013-02-07 17:32:00,43.0,23.0,-100.00,SSW,212,2.0,12.0,45,0.00,,,0.01,188.000000,,2013-02-08 00:32:00,
2013-02-07 17:42:00,43.0,23.0,-100.00,SSW,212,2.0,12.0,45,0.00,,,0.01,188.000000,,2013-02-08 00:42:00,
2013-02-07 17:52:00,43.0,23.0,-100.00,SSW,212,2.0,12.0,45,0.00,,,0.01,188.000000,,2013-02-08 00:52:00,
2013-02-07 18:01:00,43.0,23.0,-100.00,SSW,212,2.0,12.0,45,0.00,,,0.01,188.000000,,2013-02-08 01:01:00,
2013-02-07 19:22:00,31.0,24.0,-100.00,SSE,167,2.0,6.0,75,-99.99,,,0.01,0.000000,,2013-02-08 02:22:00,
2013-02-07 19:32:00,31.0,24.0,-100.00,SSE,167,2.0,6.0,75,-99.99,,,0.01,0.000000,,2013-02-08 02:32:00,
2013-02-07 19:42:00,31.0,24.0,-100.00,SSE,167,2.0,6.0,75,-99.99,,,0.01,0.000000,,2013-02-08 02:42:00,
2013-02-07 19:52:00,31.0,24.0,-100.00,SSE,167,2.0,6.0,75,-99.99,,,0.01,0.000000,,2013-02-08 02:52:00,
2013-02-07 20:01:00,31.0,24.0,-100.00,SSE,167,2.0,6.0,75,-99.99,,,0.01,0.000000,,2013-02-08 03:01:00,
2013-02-07 20:22:00,31.0,24.0,-100.00,SSW,212,2.0,4.0,74,0.00,,,0.01,0.000000,,2013-02-08 03:22:00,
2013-02-07 20:32:00,31.0,24.0,-100.00,SSW,212,2.0,4.0,74,0.00,,,0.01,0.000000,,2013-02-08 03:32:00,
2013-02-07 20:42:00,31.0,24.0,-100.00,SSW,212,2.0,4.0,74,0.00,,,0.01,0.000000,,2013-02-08 03:42:00,
2013-02-07 20:52:00,31.0,24.0,-100.00,SSW,212,2.0,4.0,74,0.00,,,0.01,0.000000,,2013-02-08 03:52:00,
2013-02-07 21:01:00,31.0,24.0,-100.00,SSW,212,2.0,4.0,74,0.00,,,0.01,0.000000,,2013-02-08 04:01:00,
2013-02-07 21:21:00,30.0,23.0,-100.00,SSW,200,0.0,8.0,75,0.00,,,0.01,0.000000,,2013-02-08 04:21:00,
2013-02-07 21:32:00,30.0,23.0,-100.00,SSW,200,0.0,8.0,75,0.00,,,0.01,0.000000,,2013-02-08 04:32:00,
2013-02-07 21:42:00,30.0,23.0,-100.00,SSW,200,0.0,8.0,75,0.00,,,0.01,0.000000,,2013-02-08 04:42:00,
2013-02-07 21:52:00,30.0,23.0,-100.00,SSW,200,0.0,8.0,75,0.00,,,0.01,0.000000,,2013-02-08 04:52:00,
2013-02-07 22:01:00,30.0,23.0,-100.00,SSW,200,0.0,8.0,75,0.00,,,0.01,0.000000,,2013-02-08 05:01:00,
2013-02-07 22:32:00,29.0,25.0,-100.00,South,187,0.0,5.0,85,0.00,,,0.01,0.000000,,2013-02-08 05:32:00,
2013-02-07 22:42:00,29.0,25.0,-100.00,South,187,0.0,5.0,85,0.00,,,0.01,0.000000,,2013-02-08 05:42:00,
2013-02-07 22:52:00,29.0,25.0,-100.00,South,187,0.0,5.0,85,0.00,,,0.01,0.000000,,2013-02-08 05:52:00,
2013-02-07 23:01:00,29.0,25.0,-100.00,South,187,0.0,5.0,85,0.00,,,0.01,0.000000,,2013-02-08 06:01:00,
2013-02-07 23:32:00,31.0,28.0,-100.00,South,173,3.0,3.0,87,0.00,,,0.01,0.000000,,2013-02-08 06:32:00,
2013-02-07 23:42:00,31.0,28.0,-100.00,South,173,3.0,3.0,87,0.00,,,0.01,0.000000,,2013-02-08 06:42:00,
2013-02-07 23:52:00,31.0,28.0,-100.00,South,173,3.0,3.0,87,0.00,,,0.01,0.000000,,2013-02-08 06:52:00,